sensor_id;sensor_type;location;lat;lon;timestamp;pressure;altitude;pressure_sealevel;temperature;humidity
15314;BME280;7757;52.626;4.746;2023-02-14T00:02:06;103358.97;;;15.86;64.79
15314;BME280;7757;52.626;4.746;2023-02-14T00:04:54;103345.66;;;15.85;64.53
15314;BME280;7757;52.626;4.746;2023-02-14T00:07:40;103348.34;;;15.85;64.86
15314;BME280;7757;52.626;4.746;2023-02-14T00:10:26;103348.50;;;15.83;65.18
15314;BME280;7757;52.626;4.746;2023-02-14T00:13:14;103343.97;;;15.84;64.19
15314;BME280;7757;52.626;4.746;2023-02-14T00:16:00;103344.94;;;15.83;64.85
15314;BME280;7757;52.626;4.746;2023-02-14T00:18:46;103344.13;;;15.82;64.39
15314;BME280;7757;52.626;4.746;2023-02-14T00:21:50;103337.34;;;15.78;64.67
15314;BME280;7757;52.626;4.746;2023-02-14T00:24:36;103337.16;;;15.80;65.25
15314;BME280;7757;52.626;4.746;2023-02-14T00:27:24;103332.94;;;15.77;64.60
15314;BME280;7757;52.626;4.746;2023-02-14T00:30:12;103332.09;;;15.77;64.67
15314;BME280;7757;52.626;4.746;2023-02-14T00:32:59;103333.78;;;15.78;64.54
15314;BME280;7757;52.626;4.746;2023-02-14T00:35:44;103334.78;;;15.77;64.29
15314;BME280;7757;52.626;4.746;2023-02-14T00:38:33;103330.41;;;15.76;64.59
15314;BME280;7757;52.626;4.746;2023-02-14T00:41:20;103330.75;;;15.73;64.41
15314;BME280;7757;52.626;4.746;2023-02-14T00:44:07;103333.25;;;15.74;64.41
15314;BME280;7757;52.626;4.746;2023-02-14T00:46:55;103321.78;;;15.72;64.83
15314;BME280;7757;52.626;4.746;2023-02-14T00:49:40;103317.94;;;15.75;65.07
15314;BME280;7757;52.626;4.746;2023-02-14T00:52:31;103309.09;;;15.65;64.23
15314;BME280;7757;52.626;4.746;2023-02-14T00:55:18;103318.41;;;15.70;65.09
15314;BME280;7757;52.626;4.746;2023-02-14T00:58:03;103317.38;;;15.71;64.88
15314;BME280;7757;52.626;4.746;2023-02-14T01:00:48;103296.09;;;15.60;64.32
15314;BME280;7757;52.626;4.746;2023-02-14T01:03:36;103313.69;;;15.72;65.03
15314;BME280;7757;52.626;4.746;2023-02-14T01:06:22;103303.72;;;15.65;64.37
15314;BME280;7757;52.626;4.746;2023-02-14T01:09:08;103299.13;;;15.65;64.50
15314;BME280;7757;52.626;4.746;2023-02-14T01:11:54;103304.72;;;15.63;64.48
15314;BME280;7757;52.626;4.746;2023-02-14T01:14:40;103301.16;;;15.63;65.12
15314;BME280;7757;52.626;4.746;2023-02-14T01:17:27;103298.09;;;15.58;64.33
15314;BME280;7757;52.626;4.746;2023-02-14T01:20:15;103310.09;;;15.63;64.89
15314;BME280;7757;52.626;4.746;2023-02-14T01:23:00;103313.13;;;15.60;65.06
15314;BME280;7757;52.626;4.746;2023-02-14T01:25:46;103303.19;;;15.61;64.30
15314;BME280;7757;52.626;4.746;2023-02-14T01:28:31;103301.47;;;15.60;64.99
15314;BME280;7757;52.626;4.746;2023-02-14T01:31:22;103303.31;;;15.59;65.12
15314;BME280;7757;52.626;4.746;2023-02-14T01:34:11;103304.34;;;15.58;64.85
15314;BME280;7757;52.626;4.746;2023-02-14T01:36:58;103308.88;;;15.58;64.38
15314;BME280;7757;52.626;4.746;2023-02-14T01:39:44;103298.72;;;15.52;64.97
15314;BME280;7757;52.626;4.746;2023-02-14T01:42:34;103303.63;;;15.56;65.18
15314;BME280;7757;52.626;4.746;2023-02-14T01:45:22;103303.09;;;15.53;65.09
15314;BME280;7757;52.626;4.746;2023-02-14T01:48:11;103303.81;;;15.55;64.20
15314;BME280;7757;52.626;4.746;2023-02-14T01:50:57;103302.28;;;15.52;65.21
15314;BME280;7757;52.626;4.746;2023-02-14T01:53:46;103301.44;;;15.52;64.86
15314;BME280;7757;52.626;4.746;2023-02-14T01:56:35;103293.47;;;15.50;65.14
15314;BME280;7757;52.626;4.746;2023-02-14T01:59:25;103294.34;;;15.51;64.79
15314;BME280;7757;52.626;4.746;2023-02-14T02:02:12;103284.41;;;15.51;64.03
15314;BME280;7757;52.626;4.746;2023-02-14T02:04:57;103283.84;;;15.48;64.29
15314;BME280;7757;52.626;4.746;2023-02-14T02:07:43;103282.00;;;15.48;64.31
15314;BME280;7757;52.626;4.746;2023-02-14T02:10:30;103285.84;;;15.46;64.54
15314;BME280;7757;52.626;4.746;2023-02-14T02:13:17;103275.91;;;15.46;64.99
15314;BME280;7757;52.626;4.746;2023-02-14T02:16:16;103284.88;;;15.47;64.43
15314;BME280;7757;52.626;4.746;2023-02-14T02:19:35;103270.97;;;15.42;64.80
15314;BME280;7757;52.626;4.746;2023-02-14T02:26:00;103279.59;;;15.45;64.86
15314;BME280;7757;52.626;4.746;2023-02-14T02:29:11;103289.72;;;15.43;64.87
15314;BME280;7757;52.626;4.746;2023-02-14T02:32:20;103279.06;;;15.42;64.51
15314;BME280;7757;52.626;4.746;2023-02-14T02:35:41;103285.63;;;15.39;64.40
15314;BME280;7757;52.626;4.746;2023-02-14T02:38:40;103278.38;;;15.40;64.90
15314;BME280;7757;52.626;4.746;2023-02-14T02:41:34;103280.09;;;15.41;65.27
15314;BME280;7757;52.626;4.746;2023-02-14T02:44:28;103276.69;;;15.39;64.48
15314;BME280;7757;52.626;4.746;2023-02-14T02:47:21;103289.47;;;15.37;64.32
15314;BME280;7757;52.626;4.746;2023-02-14T02:50:20;103285.09;;;15.36;64.46
15314;BME280;7757;52.626;4.746;2023-02-14T02:53:31;103293.03;;;15.37;65.11
15314;BME280;7757;52.626;4.746;2023-02-14T02:56:21;103288.63;;;15.36;65.27
15314;BME280;7757;52.626;4.746;2023-02-14T02:59:29;103292.63;;;15.32;64.63
15314;BME280;7757;52.626;4.746;2023-02-14T03:02:19;103281.84;;;15.32;64.80
15314;BME280;7757;52.626;4.746;2023-02-14T03:05:07;103285.72;;;15.30;65.17
15314;BME280;7757;52.626;4.746;2023-02-14T03:07:53;103269.47;;;15.22;64.70
15314;BME280;7757;52.626;4.746;2023-02-14T03:10:40;103280.31;;;15.30;64.18
15314;BME280;7757;52.626;4.746;2023-02-14T03:13:53;103275.25;;;15.27;64.23
15314;BME280;7757;52.626;4.746;2023-02-14T03:16:49;103276.94;;;15.28;64.78
15314;BME280;7757;52.626;4.746;2023-02-14T03:19:49;103283.34;;;15.27;64.69
15314;BME280;7757;52.626;4.746;2023-02-14T03:23:02;103267.09;;;15.19;64.70
15314;BME280;7757;52.626;4.746;2023-02-14T03:25:54;103270.03;;;15.25;64.62
15314;BME280;7757;52.626;4.746;2023-02-14T03:28:48;103272.84;;;15.24;64.67
15314;BME280;7757;52.626;4.746;2023-02-14T03:31:43;103264.94;;;15.22;64.55
15314;BME280;7757;52.626;4.746;2023-02-14T03:34:37;103261.56;;;15.20;64.92
15314;BME280;7757;52.626;4.746;2023-02-14T03:37:27;103257.00;;;15.21;64.42
15314;BME280;7757;52.626;4.746;2023-02-14T03:40:19;103266.97;;;15.20;64.50
15314;BME280;7757;52.626;4.746;2023-02-14T03:43:10;103258.03;;;15.20;64.58
15314;BME280;7757;52.626;4.746;2023-02-14T03:46:02;103263.41;;;15.20;65.13
15314;BME280;7757;52.626;4.746;2023-02-14T03:48:51;103254.63;;;15.18;64.83
15314;BME280;7757;52.626;4.746;2023-02-14T03:51:39;103255.47;;;15.18;64.05
15314;BME280;7757;52.626;4.746;2023-02-14T03:54:29;103249.22;;;15.18;64.74
15314;BME280;7757;52.626;4.746;2023-02-14T03:57:19;103249.41;;;15.16;64.70
15314;BME280;7757;52.626;4.746;2023-02-14T04:00:10;103251.91;;;15.18;64.60
15314;BME280;7757;52.626;4.746;2023-02-14T04:03:02;103246.03;;;15.14;64.53
15314;BME280;7757;52.626;4.746;2023-02-14T04:05:51;103256.09;;;15.12;65.12
15314;BME280;7757;52.626;4.746;2023-02-14T04:08:37;103255.09;;;15.13;65.40
15314;BME280;7757;52.626;4.746;2023-02-14T04:11:23;103256.09;;;15.12;64.99
15314;BME280;7757;52.626;4.746;2023-02-14T04:14:08;103259.63;;;15.13;65.00
15314;BME280;7757;52.626;4.746;2023-02-14T04:16:59;103241.75;;;15.12;64.52
15314;BME280;7757;52.626;4.746;2023-02-14T04:20:02;103252.72;;;15.10;64.83
15314;BME280;7757;52.626;4.746;2023-02-14T04:22:49;103250.03;;;15.10;64.21
15314;BME280;7757;52.626;4.746;2023-02-14T04:25:36;103250.19;;;15.08;64.23
15314;BME280;7757;52.626;4.746;2023-02-14T04:28:26;103248.50;;;15.07;65.34
15314;BME280;7757;52.626;4.746;2023-02-14T04:31:12;103241.03;;;15.01;64.81
15314;BME280;7757;52.626;4.746;2023-02-14T04:33:59;103249.78;;;15.03;64.70
15314;BME280;7757;52.626;4.746;2023-02-14T04:36:45;103245.56;;;15.01;64.52
15314;BME280;7757;52.626;4.746;2023-02-14T04:39:31;103255.91;;;15.05;64.50
15314;BME280;7757;52.626;4.746;2023-02-14T04:42:18;103235.41;;;14.95;64.90
15314;BME280;7757;52.626;4.746;2023-02-14T04:45:07;103244.72;;;15.00;64.67
15314;BME280;7757;52.626;4.746;2023-02-14T04:47:54;103244.72;;;15.00;65.23
15314;BME280;7757;52.626;4.746;2023-02-14T04:50:42;103248.13;;;15.02;64.92
15314;BME280;7757;52.626;4.746;2023-02-14T04:53:29;103239.19;;;15.02;64.12
15314;BME280;7757;52.626;4.746;2023-02-14T04:56:14;103243.88;;;15.00;63.81
15314;BME280;7757;52.626;4.746;2023-02-14T04:59:00;103240.19;;;15.01;64.54
15314;BME280;7757;52.626;4.746;2023-02-14T05:01:48;103233.25;;;14.98;64.29
15314;BME280;7757;52.626;4.746;2023-02-14T05:04:35;103239.63;;;14.97;64.03
15314;BME280;7757;52.626;4.746;2023-02-14T05:07:23;103238.78;;;14.97;65.12
15314;BME280;7757;52.626;4.746;2023-02-14T05:10:09;103233.56;;;14.95;64.95
15314;BME280;7757;52.626;4.746;2023-02-14T05:12:54;103234.00;;;14.91;64.58
15314;BME280;7757;52.626;4.746;2023-02-14T05:15:40;103234.56;;;14.94;64.19
15314;BME280;7757;52.626;4.746;2023-02-14T05:18:27;103239.81;;;14.96;64.59
15314;BME280;7757;52.626;4.746;2023-02-14T05:21:12;103235.88;;;14.90;64.99
15314;BME280;7757;52.626;4.746;2023-02-14T05:24:00;103229.78;;;14.88;64.23
15314;BME280;7757;52.626;4.746;2023-02-14T05:26:46;103237.72;;;14.90;64.21
15314;BME280;7757;52.626;4.746;2023-02-14T05:29:32;103232.66;;;14.87;65.17
15314;BME280;7757;52.626;4.746;2023-02-14T05:32:19;103229.09;;;14.86;64.83
15314;BME280;7757;52.626;4.746;2023-02-14T05:35:05;103234.50;;;14.86;65.00
15314;BME280;7757;52.626;4.746;2023-02-14T05:37:52;103241.59;;;14.87;63.94
15314;BME280;7757;52.626;4.746;2023-02-14T05:40:42;103235.19;;;14.88;64.39
15314;BME280;7757;52.626;4.746;2023-02-14T05:43:29;103237.88;;;14.88;64.45
15314;BME280;7757;52.626;4.746;2023-02-14T05:46:16;103225.03;;;14.82;64.66
15314;BME280;7757;52.626;4.746;2023-02-14T05:49:02;103232.97;;;14.84;64.32
15314;BME280;7757;52.626;4.746;2023-02-14T05:51:47;103211.97;;;14.70;65.13
15314;BME280;7757;52.626;4.746;2023-02-14T05:54:36;103233.09;;;14.82;64.38
15314;BME280;7757;52.626;4.746;2023-02-14T05:57:24;103218.41;;;14.77;64.86
15314;BME280;7757;52.626;4.746;2023-02-14T06:00:13;103225.03;;;14.82;64.13
15314;BME280;7757;52.626;4.746;2023-02-14T06:03:02;103223.19;;;14.83;64.24
15314;BME280;7757;52.626;4.746;2023-02-14T06:05:48;103225.88;;;14.83;64.32
15314;BME280;7757;52.626;4.746;2023-02-14T06:08:33;103218.94;;;14.80;64.98
15314;BME280;7757;52.626;4.746;2023-02-14T06:11:19;103206.28;;;14.73;64.48
15314;BME280;7757;52.626;4.746;2023-02-14T06:14:08;103220.13;;;14.78;65.08
15314;BME280;7757;52.626;4.746;2023-02-14T06:16:54;103218.09;;;14.80;63.92
15314;BME280;7757;52.626;4.746;2023-02-14T06:19:40;103216.75;;;14.76;65.05
15314;BME280;7757;52.626;4.746;2023-02-14T06:22:28;103214.72;;;14.78;64.23
15314;BME280;7757;52.626;4.746;2023-02-14T06:25:15;103199.41;;;14.78;64.49
15314;BME280;7757;52.626;4.746;2023-02-14T06:28:01;103212.66;;;14.72;64.17
15314;BME280;7757;52.626;4.746;2023-02-14T06:30:51;103209.59;;;14.67;63.99
15314;BME280;7757;52.626;4.746;2023-02-14T06:33:36;103220.03;;;14.87;63.63
15314;BME280;7757;52.626;4.746;2023-02-14T06:36:22;103222.78;;;14.95;63.48
15314;BME280;7757;52.626;4.746;2023-02-14T06:39:08;103217.34;;;14.87;63.64
15314;BME280;7757;52.626;4.746;2023-02-14T06:41:54;103210.47;;;14.93;63.89
15314;BME280;7757;52.626;4.746;2023-02-14T06:44:39;103214.38;;;14.98;63.08
15314;BME280;7757;52.626;4.746;2023-02-14T06:47:27;103211.03;;;14.96;63.80
15314;BME280;7757;52.626;4.746;2023-02-14T06:50:13;103208.31;;;14.96;63.19
15314;BME280;7757;52.626;4.746;2023-02-14T06:52:59;103211.91;;;15.05;63.41
15314;BME280;7757;52.626;4.746;2023-02-14T06:55:45;103194.22;;;15.02;62.86
15314;BME280;7757;52.626;4.746;2023-02-14T06:58:32;103210.81;;;15.16;62.95
15314;BME280;7757;52.626;4.746;2023-02-14T07:01:18;103213.03;;;15.20;62.29
15314;BME280;7757;52.626;4.746;2023-02-14T07:04:11;103215.44;;;15.23;63.11
15314;BME280;7757;52.626;4.746;2023-02-14T07:06:57;103216.94;;;15.26;62.27
15314;BME280;7757;52.626;4.746;2023-02-14T07:09:44;103209.19;;;15.23;61.89
15314;BME280;7757;52.626;4.746;2023-02-14T07:12:31;103218.31;;;15.30;62.53
15314;BME280;7757;52.626;4.746;2023-02-14T07:15:19;103223.38;;;15.33;62.66
15314;BME280;7757;52.626;4.746;2023-02-14T07:18:04;103216.94;;;15.26;62.58
15314;BME280;7757;52.626;4.746;2023-02-14T07:20:55;103222.38;;;15.34;62.35
15314;BME280;7757;52.626;4.746;2023-02-14T07:23:41;103215.28;;;15.33;62.30
15314;BME280;7757;52.626;4.746;2023-02-14T07:26:29;103209.06;;;15.32;63.34
15314;BME280;7757;52.626;4.746;2023-02-14T07:29:16;103226.78;;;15.60;62.69
15314;BME280;7757;52.626;4.746;2023-02-14T07:32:03;103227.03;;;16.09;62.52
15314;BME280;7757;52.626;4.746;2023-02-14T07:34:50;103227.31;;;16.56;61.66
15314;BME280;7757;52.626;4.746;2023-02-14T07:37:38;103230.88;;;17.05;60.24
15314;BME280;7757;52.626;4.746;2023-02-14T07:40:23;103228.31;;;17.27;59.64
15314;BME280;7757;52.626;4.746;2023-02-14T07:43:09;103239.28;;;17.58;59.65
15314;BME280;7757;52.626;4.746;2023-02-14T07:45:56;103235.66;;;17.82;59.43
15314;BME280;7757;52.626;4.746;2023-02-14T07:48:42;103227.44;;;18.06;58.91
15314;BME280;7757;52.626;4.746;2023-02-14T07:51:34;103238.66;;;18.26;58.46
15314;BME280;7757;52.626;4.746;2023-02-14T07:54:24;103223.13;;;18.42;57.96
15314;BME280;7757;52.626;4.746;2023-02-14T07:57:10;103234.88;;;18.66;57.97
15314;BME280;7757;52.626;4.746;2023-02-14T08:00:04;103223.97;;;18.74;57.52
15314;BME280;7757;52.626;4.746;2023-02-14T08:02:51;103226.25;;;18.85;57.59
15314;BME280;7757;52.626;4.746;2023-02-14T08:05:40;103233.69;;;19.06;56.86
15314;BME280;7757;52.626;4.746;2023-02-14T08:08:40;103233.44;;;19.15;56.71
15314;BME280;7757;52.626;4.746;2023-02-14T08:11:32;103214.25;;;19.17;56.43
15314;BME280;7757;52.626;4.746;2023-02-14T08:14:35;103224.38;;;19.37;56.56
15314;BME280;7757;52.626;4.746;2023-02-14T08:17:21;103229.31;;;19.57;56.28
15314;BME280;7757;52.626;4.746;2023-02-14T08:20:09;103226.50;;;19.65;56.10
15314;BME280;7757;52.626;4.746;2023-02-14T08:22:56;103224.34;;;19.75;56.06
15314;BME280;7757;52.626;4.746;2023-02-14T08:25:43;103231.91;;;19.79;55.81
15314;BME280;7757;52.626;4.746;2023-02-14T08:28:34;103228.28;;;19.87;55.74
15314;BME280;7757;52.626;4.746;2023-02-14T08:31:26;103227.97;;;19.96;55.16
15314;BME280;7757;52.626;4.746;2023-02-14T08:34:14;103228.41;;;20.15;55.40
15314;BME280;7757;52.626;4.746;2023-02-14T08:37:05;103218.84;;;20.19;54.79
15314;BME280;7757;52.626;4.746;2023-02-14T08:39:51;103226.22;;;20.25;54.58
15314;BME280;7757;52.626;4.746;2023-02-14T08:42:40;103228.72;;;20.41;54.76
15314;BME280;7757;52.626;4.746;2023-02-14T08:45:27;103230.59;;;20.40;54.35
15314;BME280;7757;52.626;4.746;2023-02-14T08:48:13;103239.28;;;20.50;54.58
15314;BME280;7757;52.626;4.746;2023-02-14T08:51:04;103228.34;;;20.44;54.39
15314;BME280;7757;52.626;4.746;2023-02-14T08:53:51;103236.78;;;20.70;53.95
15314;BME280;7757;52.626;4.746;2023-02-14T08:56:37;103234.34;;;20.75;54.21
15314;BME280;7757;52.626;4.746;2023-02-14T08:59:23;103236.75;;;20.91;53.19
15314;BME280;7757;52.626;4.746;2023-02-14T09:02:12;103234.56;;;21.01;53.40
15314;BME280;7757;52.626;4.746;2023-02-14T09:04:59;103243.19;;;21.05;53.89
15314;BME280;7757;52.626;4.746;2023-02-14T09:07:46;103236.16;;;21.17;52.58
15314;BME280;7757;52.626;4.746;2023-02-14T09:10:32;103228.28;;;21.22;53.10
15314;BME280;7757;52.626;4.746;2023-02-14T09:13:17;103226.34;;;21.16;52.70
15314;BME280;7757;52.626;4.746;2023-02-14T09:16:07;103238.44;;;21.41;52.94
15314;BME280;7757;52.626;4.746;2023-02-14T09:18:55;103230.22;;;21.35;52.35
15314;BME280;7757;52.626;4.746;2023-02-14T09:21:42;103237.06;;;21.52;52.23
15314;BME280;7757;52.626;4.746;2023-02-14T09:24:28;103228.91;;;21.52;52.34
15314;BME280;7757;52.626;4.746;2023-02-14T09:27:15;103229.28;;;21.83;51.41
15314;BME280;7757;52.626;4.746;2023-02-14T09:30:01;103222.13;;;21.82;51.58
15314;BME280;7757;52.626;4.746;2023-02-14T09:32:51;103239.19;;;21.91;51.12
15314;BME280;7757;52.626;4.746;2023-02-14T09:35:42;103244.47;;;21.99;51.60
15314;BME280;7757;52.626;4.746;2023-02-14T09:38:28;103233.72;;;21.91;51.21
15314;BME280;7757;52.626;4.746;2023-02-14T09:41:37;103219.47;;;21.89;51.27
15314;BME280;7757;52.626;4.746;2023-02-14T09:44:30;103219.47;;;21.89;50.64
15314;BME280;7757;52.626;4.746;2023-02-14T09:47:20;103228.94;;;21.93;51.07
15314;BME280;7757;52.626;4.746;2023-02-14T09:50:16;103228.44;;;21.83;51.12
15314;BME280;7757;52.626;4.746;2023-02-14T09:53:15;103219.81;;;21.79;51.61
15314;BME280;7757;52.626;4.746;2023-02-14T09:56:05;103222.13;;;21.76;51.44
15314;BME280;7757;52.626;4.746;2023-02-14T09:59:00;103213.47;;;21.65;50.41
15314;BME280;7757;52.626;4.746;2023-02-14T10:01:52;103215.50;;;21.57;49.26
15314;BME280;7757;52.626;4.746;2023-02-14T10:04:46;103218.50;;;21.68;49.54
15314;BME280;7757;52.626;4.746;2023-02-14T10:07:54;103209.72;;;21.73;51.94
15314;BME280;7757;52.626;4.746;2023-02-14T10:10:46;103223.56;;;21.72;50.16
15314;BME280;7757;52.626;4.746;2023-02-14T10:13:38;103229.19;;;21.63;50.44
15314;BME280;7757;52.626;4.746;2023-02-14T10:16:30;103214.31;;;21.66;49.97
15314;BME280;7757;52.626;4.746;2023-02-14T10:19:20;103223.06;;;21.61;50.90
15314;BME280;7757;52.626;4.746;2023-02-14T10:22:10;103220.91;;;21.50;51.46
15314;BME280;7757;52.626;4.746;2023-02-14T10:25:00;103222.16;;;21.48;50.82
15314;BME280;7757;52.626;4.746;2023-02-14T10:27:50;103219.00;;;21.44;50.69
15314;BME280;7757;52.626;4.746;2023-02-14T10:30:38;103215.59;;;21.36;51.06
15314;BME280;7757;52.626;4.746;2023-02-14T10:33:29;103222.84;;;21.29;51.19
15314;BME280;7757;52.626;4.746;2023-02-14T10:36:28;103225.41;;;21.30;51.34
15314;BME280;7757;52.626;4.746;2023-02-14T10:39:33;103201.97;;;21.36;51.92
15314;BME280;7757;52.626;4.746;2023-02-14T10:42:31;103199.53;;;21.13;51.45
15314;BME280;7757;52.626;4.746;2023-02-14T10:45:31;103220.56;;;21.26;52.11
15314;BME280;7757;52.626;4.746;2023-02-14T10:48:27;103222.97;;;21.14;52.05
15314;BME280;7757;52.626;4.746;2023-02-14T10:51:17;103208.09;;;21.10;52.71
15314;BME280;7757;52.626;4.746;2023-02-14T10:54:15;103217.09;;;21.10;52.58
15314;BME280;7757;52.626;4.746;2023-02-14T10:57:08;103206.13;;;21.04;52.77
15314;BME280;7757;52.626;4.746;2023-02-14T10:59:59;103205.88;;;20.99;52.70
15314;BME280;7757;52.626;4.746;2023-02-14T11:02:52;103200.16;;;20.94;53.27
15314;BME280;7757;52.626;4.746;2023-02-14T11:05:42;103206.84;;;20.91;53.21
15314;BME280;7757;52.626;4.746;2023-02-14T11:08:33;103199.28;;;20.87;53.06
15314;BME280;7757;52.626;4.746;2023-02-14T11:11:23;103200.91;;;20.81;52.90
15314;BME280;7757;52.626;4.746;2023-02-14T11:14:24;103207.13;;;20.75;52.64
15314;BME280;7757;52.626;4.746;2023-02-14T11:17:26;103195.13;;;20.70;53.05
15314;BME280;7757;52.626;4.746;2023-02-14T11:20:28;103190.91;;;20.61;52.97
15314;BME280;7757;52.626;4.746;2023-02-14T11:23:19;103192.09;;;20.58;53.24
15314;BME280;7757;52.626;4.746;2023-02-14T11:26:10;103188.66;;;20.49;53.04
15314;BME280;7757;52.626;4.746;2023-02-14T11:29:00;103185.69;;;20.44;53.13
15314;BME280;7757;52.626;4.746;2023-02-14T11:31:47;103186.09;;;20.41;53.22
15314;BME280;7757;52.626;4.746;2023-02-14T11:34:35;103169.06;;;20.33;52.98
15314;BME280;7757;52.626;4.746;2023-02-14T11:37:28;103171.69;;;20.26;53.12
15314;BME280;7757;52.626;4.746;2023-02-14T11:40:24;103159.44;;;20.16;53.37
15314;BME280;7757;52.626;4.746;2023-02-14T11:43:18;103167.00;;;20.20;52.88
15314;BME280;7757;52.626;4.746;2023-02-14T11:46:09;103157.75;;;20.15;53.33
15314;BME280;7757;52.626;4.746;2023-02-14T11:48:59;103152.53;;;20.13;52.92
15314;BME280;7757;52.626;4.746;2023-02-14T11:51:46;103154.97;;;20.08;53.44
15314;BME280;7757;52.626;4.746;2023-02-14T11:54:36;103145.53;;;20.04;53.24
15314;BME280;7757;52.626;4.746;2023-02-14T11:57:24;103140.47;;;20.01;53.34
15314;BME280;7757;52.626;4.746;2023-02-14T12:00:13;103132.59;;;20.06;53.74
15314;BME280;7757;52.626;4.746;2023-02-14T12:03:04;103135.16;;;20.14;54.16
15314;BME280;7757;52.626;4.746;2023-02-14T12:05:51;103135.84;;;20.16;54.08
15314;BME280;7757;52.626;4.746;2023-02-14T12:08:44;103133.75;;;20.18;54.25
15314;BME280;7757;52.626;4.746;2023-02-14T12:11:33;103122.44;;;20.15;54.09
15314;BME280;7757;52.626;4.746;2023-02-14T12:14:21;103126.44;;;20.19;54.64
15314;BME280;7757;52.626;4.746;2023-02-14T12:17:15;103107.81;;;20.16;54.78
15314;BME280;7757;52.626;4.746;2023-02-14T12:20:08;103117.72;;;20.23;54.70
15314;BME280;7757;52.626;4.746;2023-02-14T12:23:00;103100.19;;;20.26;55.11
15314;BME280;7757;52.626;4.746;2023-02-14T12:25:53;103101.22;;;20.25;54.92
15314;BME280;7757;52.626;4.746;2023-02-14T12:28:56;103092.63;;;20.21;54.85
15314;BME280;7757;52.626;4.746;2023-02-14T12:31:49;103097.31;;;20.27;55.05
15314;BME280;7757;52.626;4.746;2023-02-14T12:34:35;103091.88;;;20.27;54.88
15314;BME280;7757;52.626;4.746;2023-02-14T12:37:33;103090.03;;;20.34;54.81
15314;BME280;7757;52.626;4.746;2023-02-14T12:40:25;103082.94;;;20.33;55.50
15314;BME280;7757;52.626;4.746;2023-02-14T12:43:29;103071.41;;;20.31;54.95
15314;BME280;7757;52.626;4.746;2023-02-14T12:46:41;103082.34;;;20.38;55.61
15314;BME280;7757;52.626;4.746;2023-02-14T12:49:41;103082.34;;;20.38;55.23
15314;BME280;7757;52.626;4.746;2023-02-14T12:52:43;103072.94;;;20.40;55.35
15314;BME280;7757;52.626;4.746;2023-02-14T12:55:41;103069.03;;;20.43;55.47
15314;BME280;7757;52.626;4.746;2023-02-14T12:58:39;103056.22;;;20.37;55.52
15314;BME280;7757;52.626;4.746;2023-02-14T13:04:53;103058.97;;;20.43;55.85
15314;BME280;7757;52.626;4.746;2023-02-14T13:07:52;103065.44;;;20.42;55.79
15314;BME280;7757;52.626;4.746;2023-02-14T13:10:52;103060.47;;;20.46;55.93
15314;BME280;7757;52.626;4.746;2023-02-14T13:13:51;103050.22;;;20.05;54.98
15314;BME280;7757;52.626;4.746;2023-02-14T13:16:51;103060.47;;;20.25;54.80
15314;BME280;7757;52.626;4.746;2023-02-14T13:19:43;103055.47;;;20.28;54.91
15314;BME280;7757;52.626;4.746;2023-02-14T13:22:34;103048.63;;;20.32;55.28
15314;BME280;7757;52.626;4.746;2023-02-14T13:25:24;103051.81;;;20.36;54.88
15314;BME280;7757;52.626;4.746;2023-02-14T13:28:15;103046.59;;;20.41;55.13
15314;BME280;7757;52.626;4.746;2023-02-14T13:31:02;103048.47;;;20.40;55.49
15314;BME280;7757;52.626;4.746;2023-02-14T13:33:50;103024.16;;;20.32;55.39
15314;BME280;7757;52.626;4.746;2023-02-14T13:36:37;103047.91;;;20.45;55.66
15314;BME280;7757;52.626;4.746;2023-02-14T13:39:30;103038.72;;;20.46;55.92
15314;BME280;7757;52.626;4.746;2023-02-14T13:42:50;103038.28;;;20.42;55.39
15314;BME280;7757;52.626;4.746;2023-02-14T13:45:53;103026.09;;;20.38;55.72
15314;BME280;7757;52.626;4.746;2023-02-14T13:48:40;103022.59;;;20.44;55.33
15314;BME280;7757;52.626;4.746;2023-02-14T13:51:45;103024.69;;;20.42;55.42
15314;BME280;7757;52.626;4.746;2023-02-14T13:54:35;103016.31;;;20.44;55.49
15314;BME280;7757;52.626;4.746;2023-02-14T13:57:29;103010.94;;;20.50;55.79
15314;BME280;7757;52.626;4.746;2023-02-14T14:00:38;103017.59;;;20.48;55.97
15314;BME280;7757;52.626;4.746;2023-02-14T14:03:53;103017.94;;;20.38;55.93
15314;BME280;7757;52.626;4.746;2023-02-14T14:10:41;103019.25;;;20.42;55.70
15314;BME280;7757;52.626;4.746;2023-02-14T14:13:53;103023.81;;;20.42;55.80
15314;BME280;7757;52.626;4.746;2023-02-14T14:16:38;103028.41;;;20.41;56.17
15314;BME280;7757;52.626;4.746;2023-02-14T14:19:55;103022.94;;;20.35;56.20
15314;BME280;7757;52.626;4.746;2023-02-14T14:22:46;103013.34;;;20.39;55.89
15314;BME280;7757;52.626;4.746;2023-02-14T14:25:37;103006.09;;;20.46;56.00
15314;BME280;7757;52.626;4.746;2023-02-14T14:28:27;103012.63;;;20.51;55.47
15314;BME280;7757;52.626;4.746;2023-02-14T14:31:18;103008.84;;;20.52;55.45
15314;BME280;7757;52.626;4.746;2023-02-14T14:34:04;103002.94;;;20.42;55.89
15314;BME280;7757;52.626;4.746;2023-02-14T14:37:00;103004.88;;;20.55;55.35
15314;BME280;7757;52.626;4.746;2023-02-14T14:39:50;103018.47;;;20.55;55.88
15314;BME280;7757;52.626;4.746;2023-02-14T14:42:41;103009.91;;;20.51;55.69
15314;BME280;7757;52.626;4.746;2023-02-14T14:45:29;102989.72;;;20.39;55.52
15314;BME280;7757;52.626;4.746;2023-02-14T14:48:21;103000.44;;;20.47;55.57
15314;BME280;7757;52.626;4.746;2023-02-14T14:51:16;102994.38;;;20.45;55.51
15314;BME280;7757;52.626;4.746;2023-02-14T14:54:12;103001.53;;;20.53;55.80
15314;BME280;7757;52.626;4.746;2023-02-14T14:57:01;102995.84;;;20.48;55.64
15314;BME280;7757;52.626;4.746;2023-02-14T14:59:49;103000.50;;;20.54;55.65
15314;BME280;7757;52.626;4.746;2023-02-14T15:03:00;102996.88;;;20.47;55.94
15314;BME280;7757;52.626;4.746;2023-02-14T15:05:48;103003.41;;;20.52;55.90
15314;BME280;7757;52.626;4.746;2023-02-14T15:08:34;103001.09;;;20.49;55.88
15314;BME280;7757;52.626;4.746;2023-02-14T15:11:25;103008.00;;;20.52;56.04
15314;BME280;7757;52.626;4.746;2023-02-14T15:14:32;102996.25;;;20.45;55.70
15314;BME280;7757;52.626;4.746;2023-02-14T15:17:24;103011.09;;;20.42;55.88